Latest Weather Observations for Scoresby

IDV60901

Issued at 6:11 pm EDT Tuesday 24 January 2017 (issued every 10 minutes, with the page automatically refreshed every 10 minutes)

About weather observations | Map of Melbourne area stations | Latest observations for Melbourne area | Other Formats
Station Details ID: 086104 Name: SCORESBY RESEARCH INSTITUTE Lat: -37.87 Lon: 145.26 Height: 80.0 m
Data from the previous 72 hours. | See also: Recent months at Scoresby
Date/Time
EDT
Temp
°C
App
Temp
°C
Dew
Point
°C
Rel
Hum
%
Delta-T
°C
Wind Press
QNH
hPa
Press
MSL
hPa
Rain since
9am
mm
Dir  Spd
km/h
Gust
km/h
Spd
kts
Gust
kts
24/06:00pm 21.5 18.8 9.1 45 6.6 S 13 26 7 14 - - 0.0
24/05:30pm 22.3 18.6 8.1 40 7.5 SW 17 24 9 13 - - 0.0
24/05:00pm 22.0 18.3 7.8 40 7.4 SSW 17 26 9 14 - - 0.0
24/04:30pm 22.0 18.5 7.0 38 7.7 SW 15 28 8 15 - - 0.0
24/04:00pm 21.9 18.7 8.4 42 7.1 SSW 15 28 8 15 - - 0.0
24/03:30pm 21.6 18.5 8.8 44 6.8 SSW 15 28 8 15 - - 0.0
24/03:00pm 21.3 17.4 8.6 44 6.7 SW 19 28 10 15 - - 0.0
24/02:30pm 21.4 18.2 9.9 48 6.2 SW 17 28 9 15 - - 0.0
24/02:00pm 20.4 17.2 9.9 51 5.7 SSW 17 28 9 15 - - 0.0
24/01:30pm 21.3 18.1 11.1 52 5.6 SW 19 35 10 19 - - 0.0
24/01:00pm 21.9 19.8 11.0 50 6.0 SW 13 24 7 13 - - 0.0
24/12:30pm 19.9 16.3 9.8 52 5.4 SW 19 32 10 17 - - 0.0
24/12:00pm 19.5 16.3 10.0 54 5.1 SSW 17 32 9 17 - - 0.0
24/11:30am 20.4 17.6 11.3 56 5.0 SW 17 32 9 17 - - 0.0
24/11:00am 19.3 16.3 10.8 58 4.6 SW 17 28 9 15 - - 0.0
24/10:30am 19.5 16.3 11.3 59 4.5 SW 19 28 10 15 - - 0.0
24/10:00am 19.6 17.0 11.9 61 4.3 SW 17 28 9 15 - - 0.0
24/09:30am 18.3 16.7 12.7 70 3.1 SSW 13 24 7 13 - - 0.0
24/09:00am 18.0 15.7 13.1 73 2.8 SSW 17 30 9 16 - - 1.4
24/08:30am 18.3 15.9 13.8 75 2.6 SW 19 30 10 16 - - 1.4
24/08:00am 19.4 17.8 13.8 70 3.2 W 15 24 8 13 - - 1.4
24/07:30am 19.1 17.4 13.5 70 3.2 WSW 15 28 8 15 - - 1.4
24/07:00am 19.7 17.8 15.8 78 2.3 W 20 33 11 18 - - 1.4
24/06:30am 19.9 19.6 16.5 81 2.1 W 13 22 7 12 - - 1.4
24/06:00am 19.8 19.0 17.0 84 1.7 WSW 17 33 9 18 - - 1.4
24/05:30am 19.8 19.9 18.3 91 0.9 W 15 33 8 18 - - 1.2
24/05:00am 20.3 19.8 18.6 90 1.1 WSW 19 35 10 19 - - 1.0
24/04:30am 22.4 21.6 19.2 82 2.0 WSW 22 35 12 19 - - 0.4
24/04:00am 23.3 25.6 17.7 71 3.5 NNE 2 7 1 4 - - 0.4
24/03:30am 22.8 25.3 17.3 71 3.4 CALM 0 0 0 0 - - 0.4
24/03:00am 23.0 24.1 17.0 69 3.7 NNE 7 13 4 7 - - 0.4
24/02:30am 22.7 22.6 16.9 70 3.6 NNE 13 20 7 11 - - 0.4
24/02:00am 22.0 21.5 16.9 73 3.1 NE 15 24 8 13 - - 0.4
24/01:30am 22.3 22.7 17.2 73 3.1 NNE 11 17 6 9 - - 0.2
24/01:00am 22.0 21.2 17.2 74 3.0 NE 17 24 9 13 - - 0.2
24/12:30am 21.5 23.0 17.7 79 2.4 NE 6 9 3 5 - - 0.2
24/12:00am 21.7 23.6 17.7 78 2.5 WNW 4 9 2 5 - - 0.2
 
Date/Time
EDT
Temp
°C
App
Temp
°C
Dew
Point
°C
Rel
Hum
%
Delta-T
°C
Wind Press
QNH
hPa
Press
MSL
hPa
Rain since
9am
mm
Dir  Spd
km/h
Gust
km/h
Spd
kts
Gust
kts
23/11:30pm 21.6 23.9 17.6 78 2.5 NW 2 6 1 3 - - 0.2
23/11:00pm 21.3 22.7 17.7 80 2.2 NNE 7 11 4 6 - - 0.2
23/10:30pm 20.8 22.4 18.2 85 1.6 NE 7 11 4 6 - - 0.2
23/10:00pm 20.7 22.9 18.3 86 1.5 SE 4 9 2 5 - - 0.2
23/09:30pm 20.8 21.9 18.0 84 1.7 S 9 17 5 9 - - 0.2
23/09:00pm 21.3 22.6 17.5 79 2.3 SSW 7 11 4 6 - - 0.0
23/08:30pm 22.3 21.6 16.3 69 3.6 SW 15 24 8 13 - - 0.0
23/08:00pm 24.0 22.5 15.2 58 5.3 SSW 17 32 9 17 - - 0.0
23/07:30pm 25.6 22.3 14.1 49 6.8 SW 24 43 13 23 - - 0.0
23/07:15pm 30.0 28.8 12.9 35 10.2 NW 11 52 6 28 - - 0.0
23/07:00pm 33.9 33.4 9.2 22 14.1 NNW 2 6 1 3 - - 0.0
23/06:30pm 34.8 33.3 8.5 20 14.9 NW 6 9 3 5 - - 0.0
23/06:00pm 35.0 31.9 7.1 18 15.5 NW 13 22 7 12 - - 0.0
23/05:30pm 35.5 32.5 7.6 18 15.6 NNW 13 28 7 15 - - 0.0
23/05:00pm 35.2 34.2 12.2 25 13.8 NNE 9 19 5 10 - - 0.0
23/04:30pm 35.0 33.5 12.0 25 13.7 NNW 11 22 6 12 - - 0.0
23/04:00pm 33.8 31.9 10.4 24 13.6 NW 11 19 6 10 - - 0.0
23/03:30pm 33.7 31.2 9.7 23 13.8 NW 13 22 7 12 - - 0.0
23/03:00pm 33.3 32.1 13.9 31 11.8 NNE 13 28 7 15 - - 0.0
23/02:30pm 33.6 32.4 14.1 30 12.0 N 13 22 7 12 - - 0.0
23/02:00pm 33.8 31.8 12.7 27 12.7 N 15 26 8 14 - - 0.0
23/01:30pm 34.7 32.0 10.5 23 14.1 N 15 30 8 16 - - 0.0
23/01:00pm 34.4 32.4 12.7 27 13.1 N 15 30 8 16 - - 0.0
23/12:30pm 33.2 32.2 13.3 30 12.0 NNE 11 17 6 9 - - 0.0
23/12:00pm 33.1 31.8 14.7 33 11.4 NNE 15 24 8 13 - - 0.0
23/11:30am 31.6 29.3 12.9 32 11.2 NE 17 24 9 13 - - 0.0
23/11:00am 30.6 27.8 11.5 30 11.1 NNE 17 26 9 14 - - 0.0
23/10:30am 29.7 28.3 12.2 34 10.3 NNE 11 22 6 12 - - 0.0
23/10:00am 29.1 26.8 11.6 33 10.1 NE 15 22 8 12 - - 0.0
23/09:30am 28.2 27.0 12.9 38 9.0 NNE 11 19 6 10 - - 0.0
23/09:00am 27.8 25.9 13.0 40 8.7 NE 15 20 8 11 - - 0.0
23/08:30am 24.1 24.1 14.2 54 5.9 NNE 7 11 4 6 - - 0.0
23/08:00am 23.1 23.8 14.4 58 5.1 N 4 9 2 5 - - 0.0
23/07:30am 20.5 22.2 15.3 72 3.1 CALM 0 0 0 0 - - 0.0
23/07:00am 19.7 20.9 14.9 74 2.8 NNE 2 6 1 3 - - 0.0
23/06:30am 19.4 21.1 15.3 77 2.4 CALM 0 0 0 0 - - 0.0
23/06:00am 18.7 20.5 15.4 81 1.9 CALM 0 0 0 0 - - 0.0
23/05:30am 18.4 20.3 15.8 85 1.5 CALM 0 0 0 0 - - 0.0
23/05:00am 18.8 20.7 15.7 82 1.8 CALM 0 0 0 0 - - 0.0
23/04:30am 18.3 20.1 15.4 83 1.7 CALM 0 0 0 0 - - 0.0
23/04:00am 18.4 20.1 15.3 82 1.8 CALM 0 0 0 0 - - 0.0
23/03:30am 18.6 20.2 14.9 79 2.2 CALM 0 0 0 0 - - 0.0
23/03:00am 18.7 20.3 15.0 79 2.2 CALM 0 0 0 0 - - 0.0
23/02:30am 18.7 20.3 14.8 78 2.3 CALM 0 0 0 0 - - 0.0
23/02:00am 18.8 20.5 15.3 80 2.1 CALM 0 0 0 0 - - 0.0
23/01:30am 18.6 20.3 15.3 81 1.9 CALM 0 0 0 0 - - 0.0
23/01:00am 19.2 21.2 16.1 82 1.9 CALM 0 4 0 2 - - 0.0
23/12:30am 18.5 20.8 16.7 89 1.1 CALM 0 0 0 0 - - 0.0
23/12:00am 18.9 21.0 16.3 85 1.6 CALM 0 0 0 0 - - 0.0
 
Date/Time
EDT
Temp
°C
App
Temp
°C
Dew
Point
°C
Rel
Hum
%
Delta-T
°C
Wind Press
QNH
hPa
Press
MSL
hPa
Rain since
9am
mm
Dir  Spd
km/h
Gust
km/h
Spd
kts
Gust
kts
22/11:30pm 19.5 21.2 16.2 81 2.0 NNW 2 6 1 3 - - 0.0
22/11:00pm 19.6 21.6 15.9 79 2.2 CALM 0 0 0 0 - - 0.0
22/10:30pm 20.6 22.4 15.4 72 3.1 CALM 0 0 0 0 - - 0.0
22/10:00pm 22.1 24.3 16.4 70 3.5 CALM 0 0 0 0 - - 0.0
22/09:30pm 23.8 24.8 16.3 63 4.6 SSE 6 11 3 6 - - 0.0
22/09:00pm 24.0 24.6 16.8 64 4.4 SSE 9 19 5 10 - - 0.0
22/08:30pm 24.5 24.6 16.5 61 4.9 SSE 11 17 6 9 - - 0.0
22/08:00pm 25.7 25.3 16.3 56 5.8 SSE 13 22 7 12 - - 0.0
22/07:30pm 26.9 26.8 15.9 51 6.8 SSE 11 20 6 11 - - 0.0
22/07:00pm 27.5 27.2 15.5 48 7.3 S 11 19 6 10 - - 0.0
22/06:30pm 28.8 28.6 15.7 45 8.1 SSE 11 22 6 12 - - 0.0
22/06:00pm 29.6 28.2 13.4 37 9.7 SSE 13 20 7 11 - - 0.0
22/05:30pm 30.7 30.1 13.5 35 10.3 SSE 9 15 5 8 - - 0.0
22/05:00pm 30.3 30.0 12.7 34 10.4 SE 6 13 3 7 - - 0.0
22/04:30pm 30.7 30.5 13.5 35 10.3 W 7 13 4 7 - - 0.0
22/04:00pm 30.7 31.3 13.0 33 10.6 W 2 9 1 5 - - 0.0
22/03:30pm 29.8 29.2 12.3 34 10.3 W 7 15 4 8 - - 0.0
22/03:00pm 30.1 30.0 13.4 36 10.0 SW 6 13 3 7 - - 0.0
22/02:30pm 29.0 28.5 12.0 35 9.9 SE 6 9 3 5 - - 0.0
22/02:00pm 28.5 28.0 12.0 36 9.6 NNE 6 9 3 5 - - 0.0
22/01:30pm 27.5 27.5 12.3 39 8.8 WSW 4 9 2 5 - - 0.0
22/01:00pm 26.7 27.1 12.4 41 8.3 N 2 6 1 3 - - 0.0
22/12:30pm 26.1 26.3 12.9 44 7.7 W 4 7 2 4 - - 0.0
22/12:00pm 24.7 24.7 12.3 46 7.1 SW 4 9 2 5 - - 0.0
22/11:30am 23.2 23.6 12.5 51 6.1 NNE 2 6 1 3 - - 0.0
22/11:00am 21.7 21.9 11.7 53 5.6 WSW 2 4 1 2 - - 0.0
22/10:30am 21.0 21.0 12.4 58 4.9 WSW 4 7 2 4 - - 0.0
22/10:00am 19.8 20.0 11.8 60 4.4 S 2 11 1 6 - - 0.0
22/09:30am 17.9 18.0 11.5 66 3.5 NE 2 4 1 2 - - 0.0
22/09:00am 16.6 16.9 10.9 69 3.1 CALM 0 0 0 0 - - 0.0
22/08:30am 15.1 15.0 10.9 76 2.2 N 2 4 1 2 - - 0.0
22/08:00am 14.4 13.8 10.4 77 2.1 NE 4 6 2 3 - - 0.0
22/07:30am 12.2 12.6 11.1 93 0.6 CALM 0 2 0 1 - - 0.0
22/07:00am 10.5 10.5 9.9 96 0.3 CALM 0 0 0 0 - - 0.0
22/06:30am 9.9 9.7 9.1 95 0.4 CALM 0 0 0 0 - - 0.0
22/06:00am 9.6 9.3 8.8 95 0.4 CALM 0 0 0 0 - - 0.0
22/05:30am 10.1 10.0 9.3 95 0.4 CALM 0 0 0 0 - - 0.0
22/05:00am 10.4 10.3 9.5 94 0.5 CALM 0 0 0 0 - - 0.0
22/04:30am 10.4 10.3 9.5 94 0.5 CALM 0 0 0 0 - - 0.0
22/04:00am 11.0 11.0 9.9 93 0.6 CALM 0 0 0 0 - - 0.0
22/03:30am 11.2 11.3 10.1 93 0.6 CALM 0 0 0 0 - - 0.0
22/03:00am 11.5 11.6 10.1 91 0.7 CALM 0 2 0 1 - - 0.0
22/02:30am 11.7 11.7 9.9 89 0.9 CALM 0 0 0 0 - - 0.0
22/02:00am 12.8 12.5 10.0 83 1.4 S 2 6 1 3 - - 0.0
22/01:30am 13.4 12.9 10.9 85 1.3 S 4 6 2 3 - - 0.0
22/01:00am 13.6 13.8 10.6 82 1.6 CALM 0 6 0 3 - - 0.0
22/12:30am 14.3 13.5 10.9 80 1.8 S 6 9 3 5 - - 0.0
22/12:00am 14.7 13.9 11.1 79 1.9 S 6 9 3 5 - - 0.0
 
Date/Time
EDT
Temp
°C
App
Temp
°C
Dew
Point
°C
Rel
Hum
%
Delta-T
°C
Wind Press
QNH
hPa
Press
MSL
hPa
Rain since
9am
mm
Dir  Spd
km/h
Gust
km/h
Spd
kts
Gust
kts
21/11:30pm 15.0 14.2 11.2 78 2.0 S 6 11 3 6 - - 0.0
21/11:00pm 15.2 14.3 10.8 75 2.3 SSE 6 9 3 5 - - 0.0
21/10:30pm 15.7 14.8 10.5 71 2.8 S 6 13 3 7 - - 0.0
21/10:00pm 16.4 15.2 10.3 67 3.2 S 7 13 4 7 - - 0.0
21/09:30pm 17.0 15.9 10.6 66 3.4 SSE 7 15 4 8 - - 0.0
21/09:00pm 17.6 16.7 11.2 66 3.5 SSE 7 13 4 7 - - 0.0
21/08:30pm 18.8 16.9 10.6 59 4.4 SSE 11 17 6 9 - - 0.0
21/08:00pm 20.1 18.5 10.2 53 5.4 SSE 9 15 5 8 - - 0.0
21/07:30pm 21.1 19.8 10.0 49 6.0 SSE 7 15 4 8 - - 0.0
21/07:00pm 21.5 19.9 8.7 44 6.8 SSE 7 15 4 8 - - 0.0
21/06:30pm 22.1 20.0 9.9 46 6.6 SSW 11 19 6 10 - - 0.0

Latest Capital City Observations: Canberra | Sydney | Melbourne | Brisbane | Adelaide | Perth | Hobart | Darwin

Other Formats:

Comma delimited format used in spreadsheet applications
http://www.bom.gov.au/fwo/IDV60901/IDV60901.95867.axf

JavaScript Object Notation format (JSON) in row-major order
http://www.bom.gov.au/fwo/IDV60901/IDV60901.95867.json